createdAt,value
2019-02-07T00:01:09.452Z,94.07
2019-02-07T00:03:42.016Z,94.08
2019-02-07T00:06:14.293Z,94.14
2019-02-07T00:08:47.049Z,94.16
2019-02-07T00:11:19.394Z,94.17
2019-02-07T00:13:52.035Z,94.24
2019-02-07T00:16:23.407Z,94.26
2019-02-07T00:18:55.755Z,94.27
2019-02-07T00:21:28.499Z,94.30
2019-02-07T00:24:01.105Z,94.36
2019-02-07T00:26:33.584Z,94.40
2019-02-07T00:29:06.864Z,94.38
2019-02-07T00:31:39.239Z,94.45
2019-02-07T00:34:11.727Z,94.45
2019-02-07T00:36:44.168Z,94.53
2019-02-07T00:39:16.558Z,94.57
2019-02-07T00:41:49.358Z,94.59
2019-02-07T00:44:21.705Z,94.63
2019-02-07T00:46:54.161Z,94.64
2019-02-07T00:49:26.873Z,94.70
2019-02-07T00:51:59.610Z,94.70
2019-02-07T00:54:31.963Z,94.76
2019-02-07T00:57:04.664Z,94.77
2019-02-07T00:59:37.071Z,94.78
2019-02-07T01:02:10.550Z,94.77
2019-02-07T01:04:42.821Z,94.78
2019-02-07T01:07:15.694Z,94.79
2019-02-07T01:09:49.686Z,94.78
2019-02-07T01:12:21.924Z,94.81
2019-02-07T01:15:01.660Z,94.82
2019-02-07T01:17:28.867Z,94.85
2019-02-07T01:20:01.401Z,94.82
2019-02-07T01:22:33.843Z,94.81
2019-02-07T01:25:09.185Z,94.85
2019-02-07T01:27:41.594Z,94.88
2019-02-07T01:30:17.288Z,94.86
2019-02-07T01:32:49.410Z,94.89
2019-02-07T01:35:21.923Z,94.88
2019-02-07T01:37:54.819Z,94.90
2019-02-07T01:40:27.199Z,94.90
2019-02-07T01:42:59.565Z,94.92
2019-02-07T01:45:31.982Z,94.92
2019-02-07T01:48:04.640Z,94.94
2019-02-07T01:50:37.077Z,94.96
2019-02-07T01:53:10.053Z,94.95
2019-02-07T01:55:41.421Z,94.97
2019-02-07T01:58:15.230Z,95.01
2019-02-07T02:00:47.558Z,95.03
2019-02-07T02:03:20.212Z,95.08
2019-02-07T02:05:52.555Z,95.09
2019-02-07T02:08:24.651Z,95.13
2019-02-07T02:10:57.099Z,95.16
2019-02-07T02:13:30.797Z,95.22
2019-02-07T02:16:03.058Z,95.21
2019-02-07T02:18:35.433Z,95.23
2019-02-07T02:21:08.111Z,95.25
2019-02-07T02:23:40.750Z,95.29
2019-02-07T02:26:13.961Z,95.35
2019-02-07T02:28:46.655Z,95.34
2019-02-07T02:31:19.146Z,95.37
2019-02-07T02:33:51.514Z,95.38
2019-02-07T02:36:24.260Z,95.37
2019-02-07T02:38:56.700Z,95.40
2019-02-07T02:41:29.139Z,95.41
2019-02-07T02:44:01.510Z,95.38
2019-02-07T02:46:33.853Z,95.37
2019-02-07T02:49:06.524Z,95.42
2019-02-07T02:51:38.863Z,95.47
2019-02-07T02:54:29.902Z,95.47
2019-02-07T02:57:02.295Z,95.49
2019-02-07T02:59:35.146Z,95.51
2019-02-07T03:02:25.177Z,95.51
2019-02-07T03:05:14.742Z,95.54
2019-02-07T03:08:04.586Z,95.54
2019-02-07T03:10:55.553Z,95.56
2019-02-07T03:14:01.629Z,95.60
2019-02-07T03:17:01.813Z,95.60
2019-02-07T03:19:54.045Z,95.61
2019-02-07T03:22:52.666Z,95.59
2019-02-07T03:25:42.349Z,95.58
2019-02-07T03:28:29.852Z,95.58
2019-02-07T03:31:19.652Z,95.61
2019-02-07T03:34:09.508Z,95.60
2019-02-07T03:36:57.231Z,95.64
2019-02-07T03:39:55.656Z,95.69
2019-02-07T03:42:45.288Z,95.68
2019-02-07T03:45:35.206Z,95.67
2019-02-07T03:48:26.191Z,95.74
2019-02-07T03:51:17.116Z,95.73
2019-02-07T03:54:07.097Z,95.78
2019-02-07T03:56:57.191Z,95.77
2019-02-07T03:59:48.137Z,95.77
2019-02-07T04:02:48.170Z,95.75
2019-02-07T04:05:54.479Z,95.78
2019-02-07T04:08:44.962Z,95.81
2019-02-07T04:11:34.762Z,95.81
2019-02-07T04:14:25.474Z,95.81
2019-02-07T04:17:16.410Z,95.83
2019-02-07T04:20:07.364Z,95.82
2019-02-07T04:22:55.681Z,95.81
2019-02-07T04:26:02.070Z,95.84
2019-02-07T04:28:43.618Z,95.83
2019-02-07T04:31:37.760Z,95.86
2019-02-07T04:34:28.817Z,95.85
2019-02-07T04:37:19.838Z,95.91
2019-02-07T04:40:17.224Z,95.85
2019-02-07T04:43:11.325Z,95.85
2019-02-07T04:45:54.202Z,95.89
2019-02-07T04:48:48.604Z,95.90
2019-02-07T04:51:46.003Z,95.92
2019-02-07T04:54:40.360Z,95.94
2019-02-07T04:57:34.329Z,95.95
2019-02-07T05:00:44.562Z,95.96
2019-02-07T05:03:40.311Z,95.98
2019-02-07T05:06:31.262Z,95.95
2019-02-07T05:09:37.592Z,95.97
2019-02-07T05:12:34.935Z,95.96
2019-02-07T05:15:21.651Z,96.02
2019-02-07T05:18:11.874Z,96.03
2019-02-07T05:21:03.175Z,96.04
2019-02-07T05:24:00.005Z,96.04
2019-02-07T05:27:06.232Z,96.05
2019-02-07T05:29:51.315Z,96.04
2019-02-07T05:32:37.808Z,96.04
2019-02-07T05:35:39.988Z,96.06
2019-02-07T05:38:36.963Z,96.05
2019-02-07T05:41:28.067Z,96.04
2019-02-07T05:44:22.203Z,96.06
2019-02-07T05:47:38.042Z,96.06
2019-02-07T05:50:30.348Z,96.08
2019-02-07T05:53:20.249Z,96.08
2019-02-07T05:56:11.216Z,96.06
2019-02-07T05:59:04.957Z,96.06
2019-02-07T06:01:48.202Z,96.02
2019-02-07T06:04:42.377Z,96.00
2019-02-07T06:07:34.502Z,95.99
2019-02-07T06:10:27.110Z,95.98
2019-02-07T06:13:36.468Z,95.98
2019-02-07T06:16:33.348Z,95.92
2019-02-07T06:19:15.304Z,95.90
2019-02-07T06:22:12.715Z,95.91
2019-02-07T06:25:02.814Z,95.92
2019-02-07T06:27:56.619Z,95.84
2019-02-07T06:30:43.419Z,95.78
2019-02-07T06:33:34.266Z,95.76
2019-02-07T06:36:25.647Z,95.77
2019-02-07T06:39:12.974Z,95.73
2019-02-07T06:42:03.061Z,95.77
2019-02-07T06:45:13.325Z,95.70
2019-02-07T06:48:04.372Z,95.63
2019-02-07T06:50:58.019Z,95.57
2019-02-07T06:53:47.809Z,95.56
2019-02-07T06:56:48.239Z,95.54
2019-02-07T06:59:57.589Z,95.49
2019-02-07T07:02:47.435Z,95.49
2019-02-07T07:05:37.128Z,95.44
2019-02-07T07:08:46.790Z,95.42
2019-02-07T07:11:43.990Z,95.36
2019-02-07T07:14:34.922Z,95.36
2019-02-07T07:17:25.891Z,95.35
2019-02-07T07:20:21.997Z,95.28
2019-02-07T07:23:22.469Z,95.29
2019-02-07T07:26:12.647Z,95.29
2019-02-07T07:29:09.907Z,95.28
2019-02-07T07:32:16.359Z,95.25
2019-02-07T07:35:01.849Z,95.19
2019-02-07T07:37:58.418Z,95.19
2019-02-07T07:41:04.563Z,95.18
2019-02-07T07:43:54.596Z,95.14
2019-02-07T07:46:44.794Z,95.12
2019-02-07T07:49:32.377Z,95.10
2019-02-07T07:52:39.723Z,95.05
2019-02-07T07:55:33.429Z,94.97
2019-02-07T07:58:11.965Z,94.96
2019-02-07T08:01:15.564Z,94.90
2019-02-07T08:04:19.056Z,94.87
2019-02-07T08:07:16.605Z,94.85
2019-02-07T08:10:07.412Z,94.82
2019-02-07T08:12:57.605Z,94.79
2019-02-07T08:15:57.864Z,94.73
2019-02-07T08:18:55.420Z,94.68
2019-02-07T08:21:35.860Z,94.55
2019-02-07T08:24:28.530Z,94.57
2019-02-07T08:27:19.754Z,94.50
2019-02-07T08:30:09.401Z,94.45
2019-02-07T08:32:59.441Z,94.38
2019-02-07T08:35:49.748Z,94.34
2019-02-07T08:38:39.691Z,94.23
2019-02-07T08:41:30.677Z,94.18
2019-02-07T08:44:24.386Z,94.08
2019-02-07T08:47:15.309Z,93.99
2019-02-07T08:50:06.865Z,93.95
2019-02-07T08:53:06.888Z,93.80
2019-02-07T08:56:07.360Z,93.73
2019-02-07T08:59:08.051Z,93.68
2019-02-07T09:02:11.385Z,93.49
2019-02-07T09:05:15.891Z,93.46
2019-02-07T09:08:06.903Z,93.32
2019-02-07T09:11:04.308Z,93.13
2019-02-07T09:14:07.793Z,93.02
2019-02-07T09:17:00.172Z,92.88
2019-02-07T09:19:54.756Z,92.75
2019-02-07T09:22:51.909Z,92.55
2019-02-07T09:25:45.858Z,92.53
2019-02-07T09:28:35.919Z,92.33
2019-02-07T09:31:39.301Z,92.19
2019-02-07T09:34:30.637Z,92.11
2019-02-07T09:37:27.589Z,91.89
2019-02-07T09:40:32.073Z,91.76
2019-02-07T09:43:32.075Z,91.55
2019-02-07T09:46:25.487Z,91.40
2019-02-07T09:49:15.790Z,91.30
2019-02-07T09:51:56.037Z,91.02
2019-02-07T09:54:45.942Z,90.88
2019-02-07T09:57:37.121Z,90.62
2019-02-07T10:00:34.270Z,90.40
2019-02-07T10:03:27.838Z,90.21
2019-02-07T10:06:19.364Z,90.11
2019-02-07T10:09:08.426Z,89.85
2019-02-07T10:12:05.326Z,89.63
2019-02-07T10:14:55.441Z,89.33
2019-02-07T10:18:04.835Z,89.16
2019-02-07T10:20:54.271Z,88.88
2019-02-07T10:23:44.130Z,88.66
2019-02-07T10:26:32.200Z,88.44
2019-02-07T10:29:32.198Z,88.14
2019-02-07T10:32:29.388Z,87.96
2019-02-07T10:35:22.828Z,87.70
2019-02-07T10:38:22.319Z,87.36
2019-02-07T10:41:26.018Z,87.19
2019-02-07T10:44:08.118Z,86.87
2019-02-07T10:46:59.065Z,86.64
2019-02-07T10:49:58.649Z,86.31
2019-02-07T10:52:40.869Z,86.19
2019-02-07T10:55:30.904Z,85.70
2019-02-07T10:58:25.689Z,85.40
2019-02-07T11:01:23.101Z,85.26
2019-02-07T11:04:10.552Z,84.87
2019-02-07T11:06:51.479Z,84.64
2019-02-07T11:09:48.959Z,84.51
2019-02-07T11:12:39.974Z,84.34
2019-02-07T11:15:26.267Z,83.97
2019-02-07T11:18:16.006Z,83.55
2019-02-07T11:21:05.863Z,83.41
2019-02-07T11:24:16.964Z,83.26
2019-02-07T11:27:14.027Z,83.05
2019-02-07T11:30:03.864Z,82.91
2019-02-07T11:32:51.378Z,82.83
2019-02-07T11:35:42.907Z,82.53
2019-02-07T11:38:35.628Z,82.53
2019-02-07T11:41:36.904Z,82.55
2019-02-07T11:44:30.904Z,82.70
2019-02-07T11:47:27.943Z,83.15
2019-02-07T11:50:37.333Z,83.26
2019-02-07T11:53:31.792Z,83.69
2019-02-07T11:56:22.974Z,83.77
2019-02-07T11:59:17.152Z,83.98
2019-02-07T12:02:09.205Z,84.38
2019-02-07T12:05:12.284Z,84.58
2019-02-07T12:07:58.960Z,84.80
2019-02-07T12:11:05.387Z,85.05
2019-02-07T12:13:49.410Z,85.29
2019-02-07T12:16:49.716Z,85.53
2019-02-07T12:19:37.314Z,85.77
2019-02-07T12:22:17.288Z,85.83
2019-02-07T12:25:17.068Z,86.11
2019-02-07T12:28:07.032Z,86.16
2019-02-07T12:30:56.905Z,86.43
2019-02-07T12:34:00.318Z,86.60
2019-02-07T12:36:45.448Z,86.59
2019-02-07T12:39:24.681Z,86.68
2019-02-07T12:42:05.429Z,86.84
2019-02-07T12:45:00.641Z,86.82
2019-02-07T12:48:06.707Z,86.88
2019-02-07T12:51:02.856Z,87.02
2019-02-07T12:53:48.246Z,87.16
2019-02-07T12:56:35.700Z,87.27
2019-02-07T12:59:34.764Z,87.32
2019-02-07T13:02:41.999Z,87.48
2019-02-07T13:05:39.707Z,87.55
2019-02-07T13:08:33.717Z,87.70
2019-02-07T13:11:25.436Z,87.75
2019-02-07T13:14:04.764Z,87.95
2019-02-07T13:16:57.063Z,88.08
2019-02-07T13:19:42.676Z,88.23
2019-02-07T13:22:32.754Z,88.40
2019-02-07T13:25:22.818Z,88.53
2019-02-07T13:28:23.234Z,88.64
2019-02-07T13:31:09.556Z,88.76
2019-02-07T13:34:06.866Z,89.04
2019-02-07T13:36:57.901Z,89.22
2019-02-07T13:39:57.292Z,89.38
2019-02-07T13:42:40.522Z,89.62
2019-02-07T13:45:30.795Z,89.80
2019-02-07T13:48:31.033Z,89.96
2019-02-07T13:51:21.039Z,90.24
2019-02-07T13:54:12.083Z,90.46
2019-02-07T13:57:11.915Z,90.63
2019-02-07T14:00:23.410Z,90.80
2019-02-07T14:03:14.100Z,90.97
2019-02-07T14:06:20.174Z,91.17
2019-02-07T14:09:17.904Z,91.28
2019-02-07T14:12:18.596Z,91.57
2019-02-07T14:15:08.714Z,91.71
2019-02-07T14:18:08.728Z,91.85
2019-02-07T14:21:03.295Z,92.04
2019-02-07T14:23:51.776Z,92.25
2019-02-07T14:26:57.972Z,92.39
2019-02-07T14:29:39.424Z,92.55
2019-02-07T14:32:37.185Z,92.73
2019-02-07T14:35:29.135Z,92.90
2019-02-07T14:38:18.010Z,93.04
2019-02-07T14:41:12.026Z,93.18
2019-02-07T14:44:03.243Z,93.31
2019-02-07T14:46:48.302Z,93.46
2019-02-07T14:49:20.789Z,93.59
2019-02-07T14:51:53.146Z,93.73
2019-02-07T14:54:25.216Z,93.83
2019-02-07T14:56:57.282Z,93.94
2019-02-07T14:59:29.937Z,94.06
2019-02-07T15:02:02.263Z,94.17
2019-02-07T15:04:35.181Z,94.29
2019-02-07T15:07:07.898Z,94.40
2019-02-07T15:09:40.255Z,94.47
2019-02-07T15:12:12.743Z,94.57
2019-02-07T15:14:45.408Z,94.65
2019-02-07T15:17:18.042Z,94.78
2019-02-07T15:19:50.544Z,94.83
2019-02-07T15:22:24.550Z,94.93
2019-02-07T15:24:56.910Z,95.07
2019-02-07T15:27:28.973Z,95.12
2019-02-07T15:30:01.049Z,95.20
2019-02-07T15:32:33.127Z,95.31
2019-02-07T15:35:08.009Z,95.39
2019-02-07T15:37:40.106Z,95.46
2019-02-07T15:40:17.151Z,95.55
2019-02-07T15:42:49.346Z,95.62
2019-02-07T15:45:22.389Z,95.71
2019-02-07T15:47:54.741Z,95.75
2019-02-07T15:50:37.570Z,95.83
2019-02-07T15:53:02.244Z,95.92
2019-02-07T15:55:34.409Z,96.00
2019-02-07T15:58:06.961Z,96.05
2019-02-07T16:00:51.383Z,96.13
2019-02-07T16:03:48.805Z,96.20
2019-02-07T16:06:20.933Z,96.28
2019-02-07T16:08:53.064Z,96.37
2019-02-07T16:11:25.128Z,96.43
2019-02-07T16:13:57.591Z,96.49
2019-02-07T16:16:30.013Z,96.55
2019-02-07T16:19:02.381Z,96.60
2019-02-07T16:21:34.426Z,96.68
2019-02-07T16:24:07.342Z,96.75
2019-02-07T16:26:39.693Z,96.83
2019-02-07T16:29:12.544Z,96.84
2019-02-07T16:31:44.887Z,96.95
2019-02-07T16:34:18.876Z,96.98
2019-02-07T16:36:51.563Z,97.04
2019-02-07T16:39:25.405Z,97.09
2019-02-07T16:42:05.843Z,97.13
2019-02-07T16:44:32.080Z,97.18
2019-02-07T16:47:04.773Z,97.23
2019-02-07T16:49:37.158Z,97.29
2019-02-07T16:52:09.205Z,97.33
2019-02-07T16:54:41.697Z,97.37
2019-02-07T16:57:14.418Z,97.45
2019-02-07T16:59:46.483Z,96.73
2019-02-07T17:02:19.100Z,96.56
2019-02-07T17:04:51.166Z,96.52
2019-02-07T17:07:23.311Z,96.50
2019-02-07T17:09:56.183Z,96.41
2019-02-07T17:12:28.524Z,96.35
2019-02-07T17:15:00.691Z,96.34
2019-02-07T17:17:38.151Z,96.36
2019-02-07T17:20:17.998Z,96.35
2019-02-07T17:22:50.044Z,96.36
2019-02-07T17:25:22.531Z,96.37
2019-02-07T17:27:54.977Z,96.37
2019-02-07T17:30:27.837Z,96.36
2019-02-07T17:33:00.309Z,96.35
2019-02-07T17:35:32.868Z,96.34
2019-02-07T17:38:08.663Z,96.34
2019-02-07T17:40:40.041Z,95.41
2019-02-07T17:43:12.549Z,95.77
2019-02-07T17:45:44.744Z,95.76
2019-02-07T17:48:16.785Z,95.56
2019-02-07T17:50:49.298Z,95.52
2019-02-07T17:53:22.196Z,95.42
2019-02-07T17:55:54.865Z,95.27
2019-02-07T17:58:26.966Z,95.06
2019-02-07T18:01:05.672Z,94.95
2019-02-07T18:03:37.943Z,94.77
2019-02-07T18:06:11.657Z,94.55
2019-02-07T18:08:43.957Z,94.53
2019-02-07T18:11:16.654Z,94.40
2019-02-07T18:13:49.312Z,94.26
2019-02-07T18:16:21.718Z,94.12
2019-02-07T18:18:54.435Z,93.96
2019-02-07T18:21:33.963Z,93.82
2019-02-07T18:24:00.290Z,93.70
2019-02-07T18:26:33.097Z,93.57
2019-02-07T18:29:05.659Z,93.41
2019-02-07T18:31:38.283Z,93.30
2019-02-07T18:34:10.414Z,93.24
2019-02-07T18:36:42.627Z,93.13
2019-02-07T18:39:15.241Z,93.01
2019-02-07T18:41:48.042Z,92.84
2019-02-07T18:44:20.492Z,92.69
2019-02-07T18:46:53.303Z,92.52
2019-02-07T18:49:26.795Z,92.42
2019-02-07T18:51:59.223Z,92.32
2019-02-07T18:54:31.891Z,92.24
2019-02-07T18:57:04.751Z,92.04
2019-02-07T18:59:37.438Z,91.96
2019-02-07T19:02:10.137Z,91.86
2019-02-07T19:04:42.645Z,91.84
2019-02-07T19:07:15.413Z,91.76
2019-02-07T19:09:48.259Z,91.77
2019-02-07T19:12:21.231Z,91.74
2019-02-07T19:14:53.996Z,91.67
2019-02-07T19:17:26.652Z,91.63
2019-02-07T19:19:59.628Z,91.63
2019-02-07T19:22:32.015Z,91.61
2019-02-07T19:25:04.449Z,91.49
2019-02-07T19:27:36.798Z,91.49
2019-02-07T19:30:17.481Z,91.48
2019-02-07T19:32:49.808Z,91.47
2019-02-07T19:35:22.206Z,91.49
2019-02-07T19:37:54.734Z,91.47
2019-02-07T19:40:27.082Z,91.45
2019-02-07T19:43:00.199Z,91.46
2019-02-07T19:45:33.044Z,91.50
2019-02-07T19:48:05.791Z,91.50
2019-02-07T19:50:38.208Z,91.50
2019-02-07T19:53:11.265Z,91.49
2019-02-07T19:55:42.518Z,91.49
2019-02-07T19:58:14.516Z,91.52
2019-02-07T20:00:46.722Z,91.52
2019-02-07T20:03:19.146Z,91.58
2019-02-07T20:05:51.429Z,91.56
2019-02-07T20:08:24.336Z,91.47
2019-02-07T20:10:57.324Z,91.45
2019-02-07T20:13:29.699Z,91.39
2019-02-07T20:16:02.132Z,91.35
2019-02-07T20:18:34.850Z,91.29
2019-02-07T20:21:07.539Z,91.16
2019-02-07T20:23:40.012Z,91.05
2019-02-07T20:26:12.616Z,90.93
2019-02-07T20:28:44.969Z,90.84
2019-02-07T20:31:17.117Z,90.75
2019-02-07T20:33:50.189Z,90.68
2019-02-07T20:36:22.541Z,90.67
2019-02-07T20:38:55.350Z,90.67
2019-02-07T20:41:27.737Z,90.64
2019-02-07T20:44:00.180Z,90.63
2019-02-07T20:46:33.291Z,90.52
2019-02-07T20:49:05.838Z,90.44
2019-02-07T20:51:38.625Z,90.36
2019-02-07T20:54:10.997Z,90.22
2019-02-07T20:56:43.710Z,90.13
2019-02-07T20:59:16.243Z,90.06
2019-02-07T21:01:48.453Z,89.94
2019-02-07T21:04:20.934Z,89.91
2019-02-07T21:06:53.569Z,89.85
2019-02-07T21:09:25.976Z,89.76
2019-02-07T21:11:58.794Z,89.73
2019-02-07T21:14:31.122Z,89.68
2019-02-07T21:17:03.820Z,89.56
2019-02-07T21:19:36.173Z,89.52
2019-02-07T21:22:45.455Z,89.48
2019-02-07T21:25:22.814Z,89.36
2019-02-07T21:27:54.983Z,89.33
2019-02-07T21:30:30.432Z,89.26
2019-02-07T21:33:02.559Z,89.15
2019-02-07T21:35:34.640Z,88.96
2019-02-07T21:38:07.406Z,88.96
2019-02-07T21:40:39.918Z,88.87
2019-02-07T21:43:12.520Z,88.85
2019-02-07T21:45:44.913Z,88.73
2019-02-07T21:48:16.994Z,88.64
2019-02-07T21:50:49.087Z,88.47
2019-02-07T21:53:21.234Z,88.38
2019-02-07T21:55:53.773Z,88.35
2019-02-07T21:58:26.195Z,88.03
2019-02-07T22:00:58.901Z,87.89
2019-02-07T22:03:31.548Z,87.57
2019-02-07T22:06:03.930Z,87.27
2019-02-07T22:08:36.077Z,87.21
2019-02-07T22:11:08.434Z,86.98
2019-02-07T22:13:40.684Z,86.70
2019-02-07T22:16:13.036Z,86.47
2019-02-07T22:18:45.139Z,86.34
2019-02-07T22:21:17.894Z,86.43
2019-02-07T22:23:50.030Z,86.22
2019-02-07T22:26:22.107Z,86.16
2019-02-07T22:28:54.543Z,86.09
2019-02-07T22:31:27.243Z,85.62
2019-02-07T22:33:59.823Z,85.56
2019-02-07T22:36:31.888Z,85.67
2019-02-07T22:39:06.541Z,85.46
2019-02-07T22:41:38.591Z,85.24
2019-02-07T22:44:10.694Z,84.68
2019-02-07T22:46:42.793Z,84.51
2019-02-07T22:49:14.840Z,79.63
2019-02-07T22:51:46.908Z,67.05
2019-02-07T22:54:19.054Z,55.32
2019-02-07T22:56:51.472Z,51.12
2019-02-07T22:59:23.936Z,26.82
2019-02-07T23:01:58.545Z,25.37
2019-02-07T23:04:31.643Z,22.05
2019-02-07T23:07:03.693Z,20.10
2019-02-07T23:09:36.298Z,16.38
2019-02-07T23:12:08.770Z,9.66
2019-02-07T23:14:41.120Z,7.64
2019-02-07T23:17:13.160Z,5.39
2019-02-07T23:19:45.341Z,5.31
2019-02-07T23:22:18.157Z,4.83
2019-02-07T23:24:50.569Z,4.72
2019-02-07T23:27:23.023Z,4.32
2019-02-07T23:29:55.484Z,3.54
2019-02-07T23:32:27.883Z,1.85
2019-02-07T23:35:00.265Z,1.74
2019-02-07T23:37:32.979Z,0.13
2019-02-07T23:40:07.097Z,0.00
2019-02-07T23:42:39.252Z,0.00
2019-02-07T23:45:12.067Z,0.00
2019-02-07T23:47:44.482Z,0.00
2019-02-07T23:50:17.140Z,0.00
2019-02-07T23:52:49.618Z,0.00
2019-02-07T23:55:21.971Z,0.00
2019-02-07T23:57:54.276Z,0.00
